createdAt,value
2023-01-01T00:02:07.545Z,32.78
2023-01-01T00:04:34.629Z,30.92
2023-01-01T00:07:01.487Z,26.58
2023-01-01T00:09:46.379Z,33.00
2023-01-01T00:14:39.473Z,31.83
2023-01-01T00:17:06.020Z,32.90
2023-01-01T00:19:32.526Z,37.65
2023-01-01T00:22:02.149Z,29.05
2023-01-01T00:24:36.516Z,40.88
2023-01-01T00:27:03.039Z,40.08
2023-01-01T00:29:29.527Z,36.83
2023-01-01T00:31:56.082Z,33.67
2023-01-01T00:34:22.628Z,20.00
2023-01-01T00:36:49.192Z,43.08
2023-01-01T00:39:15.741Z,40.28
2023-01-01T00:41:42.771Z,31.20
2023-01-01T00:44:09.334Z,34.15
2023-01-01T00:46:35.828Z,27.17
2023-01-01T00:49:02.366Z,31.27
2023-01-01T00:51:34.901Z,37.05
2023-01-01T00:54:03.656Z,45.92
2023-01-01T00:56:30.160Z,26.48
2023-01-01T00:59:00.962Z,29.17
2023-01-01T01:01:28.563Z,30.67
2023-01-01T01:03:55.235Z,25.65
2023-01-01T01:06:21.769Z,26.77
2023-01-01T01:08:48.362Z,25.88
2023-01-01T01:11:21.362Z,26.70
2023-01-01T01:13:50.434Z,23.08
2023-01-01T01:16:23.087Z,31.17
2023-01-01T01:18:56.021Z,29.60
2023-01-01T01:21:24.393Z,37.58
2023-01-01T01:23:51.807Z,28.02
2023-01-01T01:26:23.983Z,29.75
2023-01-01T01:28:51.103Z,31.38
2023-01-01T01:31:19.293Z,28.95
2023-01-01T01:33:47.248Z,30.88
2023-01-01T01:36:15.539Z,30.90
2023-01-01T01:38:42.637Z,35.53
2023-01-01T01:41:16.332Z,32.67
2023-01-01T01:43:57.836Z,24.93
2023-01-01T01:46:44.546Z,32.83
2023-01-01T01:49:24.638Z,27.77
2023-01-01T01:51:51.189Z,29.52
2023-01-01T01:54:22.824Z,31.27
2023-01-01T01:56:54.797Z,29.73
2023-01-01T01:59:22.821Z,35.15
2023-01-01T02:01:49.358Z,27.30
2023-01-01T02:04:17.717Z,36.97
2023-01-01T02:06:45.198Z,43.58
2023-01-01T02:09:11.823Z,38.60
2023-01-01T02:11:38.388Z,31.20
2023-01-01T02:14:05.437Z,29.38
2023-01-01T02:16:37.904Z,42.03
2023-01-01T02:19:38.485Z,32.15
2023-01-01T02:22:17.280Z,40.05
2023-01-01T02:25:06.121Z,31.55
2023-01-01T02:28:08.616Z,32.58
2023-01-01T02:30:36.616Z,27.92
2023-01-01T02:33:09.213Z,38.08
2023-01-01T02:35:42.558Z,31.02
2023-01-01T02:38:30.397Z,37.13
2023-01-01T02:41:03.132Z,39.03
2023-01-01T02:43:29.640Z,43.15
2023-01-01T02:45:56.901Z,30.90
2023-01-01T02:48:47.544Z,43.05
2023-01-01T02:51:13.956Z,33.53
2023-01-01T02:54:18.847Z,33.13
2023-01-01T02:56:53.448Z,33.03
2023-01-01T02:59:52.611Z,37.30
2023-01-01T03:02:30.867Z,35.92
2023-01-01T03:05:03.520Z,30.75
2023-01-01T03:07:40.952Z,30.55
2023-01-01T03:10:18.312Z,35.50
2023-01-01T03:12:56.748Z,33.90
2023-01-01T03:15:30.855Z,43.20
2023-01-01T03:18:42.948Z,34.30
2023-01-01T03:23:49.746Z,33.72
2023-01-01T03:26:21.579Z,35.20
2023-01-01T03:28:55.207Z,28.38
2023-01-01T03:31:25.786Z,32.57
2023-01-01T03:34:01.201Z,32.25
2023-01-01T03:36:37.636Z,37.13
2023-01-01T03:39:20.886Z,28.63
2023-01-01T03:41:56.079Z,34.28
2023-01-01T03:44:43.517Z,27.10
2023-01-01T03:47:10.411Z,24.58
2023-01-01T03:49:36.972Z,27.35
2023-01-01T03:52:12.567Z,32.22
2023-01-01T03:54:39.023Z,34.63
2023-01-01T03:57:11.787Z,33.00
2023-01-01T03:59:41.900Z,29.35
2023-01-01T04:02:13.025Z,41.90
2023-01-01T04:04:39.837Z,30.92
2023-01-01T04:07:14.655Z,32.63
2023-01-01T04:09:47.159Z,29.92
2023-01-01T04:12:15.358Z,25.40
2023-01-01T04:14:42.979Z,29.83
2023-01-01T04:17:11.127Z,33.33
2023-01-01T04:19:38.177Z,35.83
2023-01-01T04:22:05.815Z,35.60
2023-01-01T04:24:32.361Z,32.08
2023-01-01T04:26:58.971Z,22.92
2023-01-01T04:29:26.212Z,33.53
2023-01-01T04:31:53.353Z,36.13
2023-01-01T04:34:19.892Z,28.23
2023-01-01T04:36:46.745Z,27.42
2023-01-01T04:39:13.274Z,31.52
2023-01-01T04:41:39.758Z,28.85
2023-01-01T04:44:06.440Z,26.45
2023-01-01T04:46:32.977Z,27.42
2023-01-01T04:48:59.634Z,27.35
2023-01-01T04:51:26.354Z,37.53
2023-01-01T04:53:52.923Z,35.33
2023-01-01T04:56:21.716Z,23.48
2023-01-01T04:58:49.068Z,33.05
2023-01-01T05:01:25.643Z,30.33
2023-01-01T05:03:52.828Z,33.22
2023-01-01T05:06:19.364Z,27.13
2023-01-01T05:08:48.194Z,27.60
2023-01-01T05:11:18.644Z,31.08
2023-01-01T05:13:47.875Z,33.97
2023-01-01T05:16:16.913Z,35.95
2023-01-01T05:18:44.168Z,28.40
2023-01-01T05:21:19.380Z,28.35
2023-01-01T05:23:46.013Z,24.83
2023-01-01T05:26:17.798Z,31.45
2023-01-01T05:28:45.729Z,34.67
2023-01-01T05:31:17.961Z,24.58
2023-01-01T05:33:45.350Z,31.10
2023-01-01T05:36:18.189Z,27.52
2023-01-01T05:38:45.171Z,32.65
2023-01-01T05:41:14.963Z,27.23
2023-01-01T05:43:41.796Z,31.73
2023-01-01T05:46:11.822Z,29.35
2023-01-01T05:48:38.830Z,30.73
2023-01-01T05:51:11.319Z,34.17
2023-01-01T05:53:38.313Z,26.77
2023-01-01T05:56:06.029Z,27.95
2023-01-01T05:58:34.757Z,27.55
2023-01-01T06:01:13.764Z,33.85
2023-01-01T06:03:42.023Z,32.55
2023-01-01T06:06:12.049Z,27.55
2023-01-01T06:08:38.966Z,28.30
2023-01-01T06:11:08.048Z,31.38
2023-01-01T06:13:34.785Z,25.40
2023-01-01T06:16:02.809Z,29.05
2023-01-01T06:18:32.257Z,27.48
2023-01-01T06:21:11.383Z,34.03
2023-01-01T06:23:37.985Z,30.23
2023-01-01T06:26:15.357Z,32.08
2023-01-01T06:28:43.271Z,32.97
2023-01-01T06:31:11.917Z,29.90
2023-01-01T06:33:39.020Z,28.17
2023-01-01T06:36:08.498Z,28.00
2023-01-01T06:38:37.674Z,30.33
2023-01-01T06:41:06.702Z,27.83
2023-01-01T06:43:35.457Z,28.77
2023-01-01T06:46:03.384Z,39.78
2023-01-01T06:48:32.689Z,31.85
2023-01-01T06:51:04.862Z,27.85
2023-01-01T06:53:31.358Z,27.42
2023-01-01T06:55:57.829Z,28.00
2023-01-01T06:58:24.399Z,22.73
2023-01-01T07:00:50.907Z,24.00
2023-01-01T07:03:17.374Z,30.50
2023-01-01T07:05:43.945Z,24.45
2023-01-01T07:08:10.523Z,21.23
2023-01-01T07:10:37.171Z,28.30
2023-01-01T07:13:03.672Z,28.02
2023-01-01T07:15:31.612Z,21.33
2023-01-01T07:17:58.122Z,22.90
2023-01-01T07:20:24.790Z,31.42
2023-01-01T07:22:51.290Z,35.53
2023-01-01T07:25:17.840Z,28.45
2023-01-01T07:27:44.375Z,26.73
2023-01-01T07:30:11.312Z,30.55
2023-01-01T07:32:38.229Z,26.58
2023-01-01T07:35:05.061Z,22.77
2023-01-01T07:37:31.600Z,24.63
2023-01-01T07:39:58.126Z,35.63
2023-01-01T07:42:24.637Z,22.70
2023-01-01T07:44:51.145Z,24.73
2023-01-01T07:47:25.984Z,29.58
2023-01-01T07:49:53.368Z,26.55
2023-01-01T07:52:20.599Z,34.03
2023-01-01T07:54:47.349Z,29.33
2023-01-01T07:57:13.964Z,29.20
2023-01-01T07:59:40.533Z,26.23
2023-01-01T08:02:07.742Z,27.42
2023-01-01T08:04:34.328Z,26.52
2023-01-01T08:07:00.815Z,23.38
2023-01-01T08:09:27.316Z,22.10
2023-01-01T08:11:53.851Z,22.02
2023-01-01T08:14:20.591Z,29.40
2023-01-01T08:16:47.174Z,26.55
2023-01-01T08:19:13.644Z,27.30
2023-01-01T08:21:40.167Z,21.23
2023-01-01T08:24:07.167Z,30.27
2023-01-01T08:26:35.807Z,34.63
2023-01-01T08:29:05.988Z,24.90
2023-01-01T08:31:33.599Z,29.48
2023-01-01T08:34:00.128Z,25.50
2023-01-01T08:36:26.774Z,35.75
2023-01-01T08:38:53.249Z,27.42
2023-01-01T08:41:19.832Z,23.98
2023-01-01T08:43:46.334Z,28.42
2023-01-01T08:46:12.862Z,34.08
2023-01-01T08:48:40.252Z,22.65
2023-01-01T08:51:06.923Z,34.20
2023-01-01T08:53:33.500Z,22.42
2023-01-01T08:56:03.948Z,30.80
2023-01-01T08:58:31.479Z,19.48
2023-01-01T09:00:59.418Z,28.23
2023-01-01T09:03:26.387Z,31.30
2023-01-01T09:05:53.697Z,24.63
2023-01-01T09:08:21.185Z,28.25
2023-01-01T09:10:48.265Z,24.70
2023-01-01T09:13:16.910Z,32.97
2023-01-01T09:15:43.458Z,27.65
2023-01-01T09:18:10.669Z,22.83
2023-01-01T09:20:37.696Z,27.15
2023-01-01T09:23:06.160Z,14.45
2023-01-01T09:25:33.729Z,25.80
2023-01-01T09:28:06.086Z,22.63
2023-01-01T09:30:32.968Z,25.08
2023-01-01T09:32:59.456Z,23.92
2023-01-01T09:35:25.975Z,18.95
2023-01-01T09:37:52.565Z,28.00
2023-01-01T09:40:26.688Z,28.33
2023-01-01T09:43:08.951Z,31.27
2023-01-01T09:45:50.142Z,29.52
2023-01-01T09:48:17.067Z,28.38
2023-01-01T09:50:45.938Z,19.20
2023-01-01T09:53:23.427Z,22.33
2023-01-01T09:56:04.533Z,27.25
2023-01-01T09:58:36.588Z,23.13
2023-01-01T10:01:13.057Z,24.02
2023-01-01T10:03:39.644Z,15.90
2023-01-01T10:06:25.659Z,26.83
2023-01-01T10:09:16.690Z,25.67
2023-01-01T10:11:56.229Z,27.63
2023-01-01T10:15:01.370Z,20.70
2023-01-01T10:17:37.474Z,25.63
2023-01-01T10:20:38.782Z,27.15
2023-01-01T10:23:23.086Z,23.27
2023-01-01T10:25:49.676Z,20.83
2023-01-01T10:28:27.309Z,20.85
2023-01-01T10:31:17.487Z,16.88
2023-01-01T10:33:46.459Z,17.17
2023-01-01T10:36:15.775Z,14.48
2023-01-01T10:38:42.532Z,24.65
2023-01-01T10:41:19.013Z,20.63
2023-01-01T10:43:47.125Z,18.90
2023-01-01T10:46:18.549Z,22.80
2023-01-01T10:49:14.008Z,19.20
2023-01-01T10:51:48.937Z,15.38
2023-01-01T10:54:37.146Z,18.58
2023-01-01T10:57:16.530Z,20.55
2023-01-01T10:59:50.066Z,16.60
2023-01-01T11:02:20.720Z,13.48
2023-01-01T11:04:48.192Z,19.00
2023-01-01T11:07:34.509Z,19.20
2023-01-01T11:10:05.197Z,16.80
2023-01-01T11:15:35.602Z,17.48
2023-01-01T11:18:11.473Z,15.18
2023-01-01T11:20:38.223Z,20.63
2023-01-01T11:23:20.179Z,17.00
2023-01-01T11:26:06.314Z,21.25
2023-01-01T11:28:35.082Z,22.15
2023-01-01T11:31:17.375Z,15.25
2023-01-01T11:33:50.762Z,18.75
2023-01-01T11:36:30.776Z,19.95
2023-01-01T11:39:26.675Z,18.15
2023-01-01T11:41:57.850Z,12.70
2023-01-01T11:44:38.173Z,17.02
2023-01-01T11:47:07.129Z,13.32
2023-01-01T11:49:34.490Z,20.27
2023-01-01T11:52:01.205Z,18.33
2023-01-01T11:54:37.344Z,12.50
2023-01-01T11:57:18.510Z,18.05
2023-01-01T11:59:55.318Z,17.27
2023-01-01T12:02:34.365Z,22.65
2023-01-01T12:05:25.589Z,20.80
2023-01-01T12:07:52.852Z,21.02
2023-01-01T12:10:24.416Z,19.80
2023-01-01T12:13:04.405Z,18.50
2023-01-01T12:15:49.119Z,19.15
2023-01-01T12:18:28.208Z,18.02
2023-01-01T12:21:17.630Z,17.77
2023-01-01T12:23:44.263Z,13.82
2023-01-01T12:26:25.818Z,21.35
2023-01-01T12:29:16.558Z,20.73
2023-01-01T12:32:09.739Z,23.80
2023-01-01T12:34:53.189Z,15.90
2023-01-01T12:37:41.717Z,19.27
2023-01-01T12:40:30.145Z,19.75
2023-01-01T12:43:18.411Z,17.83
2023-01-01T12:46:15.596Z,19.65
2023-01-01T12:49:15.394Z,15.35
2023-01-01T12:52:23.279Z,16.50
2023-01-01T12:55:25.040Z,15.43
2023-01-01T12:58:03.071Z,21.55
2023-01-01T13:00:32.191Z,13.38
2023-01-01T13:03:05.376Z,18.15
2023-01-01T13:05:37.821Z,12.65
2023-01-01T13:08:06.390Z,20.42
2023-01-01T13:10:37.485Z,22.48
2023-01-01T13:13:05.162Z,14.35
2023-01-01T13:15:35.838Z,12.68
2023-01-01T13:18:15.948Z,15.73
2023-01-01T13:20:44.729Z,15.50
2023-01-01T13:23:31.238Z,18.50
2023-01-01T13:26:22.960Z,18.23
2023-01-01T13:28:58.896Z,16.40
2023-01-01T13:31:48.558Z,16.58
2023-01-01T13:34:30.503Z,20.08
2023-01-01T13:37:14.978Z,17.83
2023-01-01T13:40:02.670Z,18.92
2023-01-01T13:43:00.775Z,17.75
2023-01-01T13:46:11.015Z,18.85
2023-01-01T13:49:18.131Z,31.10
2023-01-01T13:52:05.883Z,18.80
2023-01-01T13:54:36.110Z,14.15
2023-01-01T13:57:10.937Z,18.92
2023-01-01T14:00:04.900Z,15.10
2023-01-01T14:02:40.570Z,25.52
2023-01-01T14:05:13.288Z,15.38
2023-01-01T14:07:51.559Z,19.55
2023-01-01T14:10:19.000Z,25.17
2023-01-01T14:12:45.592Z,17.95
2023-01-01T14:15:32.197Z,19.50
2023-01-01T14:18:01.445Z,20.70
2023-01-01T14:20:44.878Z,21.85
2023-01-01T14:23:17.710Z,19.55
2023-01-01T14:25:45.359Z,23.65
2023-01-01T14:28:27.201Z,21.65
2023-01-01T14:30:55.279Z,14.15
2023-01-01T14:33:28.549Z,15.38
2023-01-01T14:35:57.711Z,19.92
2023-01-01T14:38:27.713Z,11.90
2023-01-01T14:41:01.923Z,18.55
2023-01-01T14:43:29.362Z,17.17
2023-01-01T14:45:55.972Z,21.58
2023-01-01T14:48:22.642Z,18.00
2023-01-01T14:50:51.926Z,20.75
2023-01-01T14:53:23.550Z,10.63
2023-01-01T14:55:50.745Z,17.25
2023-01-01T14:58:23.608Z,15.80
2023-01-01T15:00:51.235Z,10.20
2023-01-01T15:03:20.359Z,14.52
2023-01-01T15:05:59.781Z,14.75
2023-01-01T15:08:26.962Z,10.13
2023-01-01T15:10:54.985Z,16.88
2023-01-01T15:13:24.628Z,11.20
2023-01-01T15:15:54.557Z,10.88
2023-01-01T15:18:34.997Z,8.38
2023-01-01T15:21:07.324Z,9.75
2023-01-01T15:23:34.913Z,15.35
2023-01-01T15:26:01.654Z,15.38
2023-01-01T15:28:28.531Z,12.52
2023-01-01T15:30:56.978Z,16.13
2023-01-01T15:33:24.051Z,18.05
2023-01-01T15:35:52.375Z,9.25
2023-01-01T15:38:25.727Z,21.10
2023-01-01T15:40:53.838Z,16.60
2023-01-01T15:43:22.300Z,9.77
2023-01-01T15:45:55.180Z,26.25
2023-01-01T15:48:35.041Z,12.10
2023-01-01T15:51:10.984Z,13.20
2023-01-01T15:54:05.423Z,14.40
2023-01-01T15:56:38.732Z,10.43
2023-01-01T15:59:22.334Z,21.50
2023-01-01T16:01:49.386Z,17.20
2023-01-01T16:04:24.004Z,18.13
2023-01-01T16:06:57.319Z,14.15
2023-01-01T16:09:23.826Z,24.30
2023-01-01T16:11:55.414Z,12.48
2023-01-01T16:14:22.995Z,13.32
2023-01-01T16:16:57.120Z,19.30
2023-01-01T16:19:24.636Z,21.42
2023-01-01T16:21:51.193Z,18.48
2023-01-01T16:24:19.330Z,20.42
2023-01-01T16:26:46.813Z,22.15
2023-01-01T16:29:13.438Z,21.73
2023-01-01T16:31:40.863Z,28.17
2023-01-01T16:34:07.416Z,22.23
2023-01-01T16:36:34.432Z,18.67
2023-01-01T16:39:01.527Z,20.30
2023-01-01T16:41:31.087Z,17.30
2023-01-01T16:43:57.941Z,23.23
2023-01-01T16:46:24.715Z,23.13
2023-01-01T16:48:51.252Z,25.00
2023-01-01T16:51:24.248Z,18.17
2023-01-01T16:53:50.780Z,17.38
2023-01-01T16:56:17.531Z,24.35
2023-01-01T16:58:55.298Z,17.58
2023-01-01T17:01:24.974Z,21.35
2023-01-01T17:03:52.045Z,21.83
2023-01-01T17:06:19.254Z,19.25
2023-01-01T17:08:45.872Z,24.80
2023-01-01T17:11:16.634Z,21.45
2023-01-01T17:13:47.484Z,25.70
2023-01-01T17:16:21.429Z,28.38
2023-01-01T17:21:40.639Z,20.15
2023-01-01T17:24:08.001Z,26.85
2023-01-01T17:26:34.622Z,25.70
2023-01-01T17:29:03.062Z,24.75
2023-01-01T17:31:29.917Z,23.63
2023-01-01T17:33:56.883Z,29.05
2023-01-01T17:36:23.795Z,18.98
2023-01-01T17:38:50.495Z,24.52
2023-01-01T17:41:18.068Z,29.80
2023-01-01T17:43:46.994Z,16.58
2023-01-01T17:46:16.092Z,21.98
2023-01-01T17:48:43.857Z,26.65
2023-01-01T17:51:11.373Z,29.02
2023-01-01T17:53:41.165Z,19.98
2023-01-01T17:56:13.368Z,22.23
2023-01-01T17:58:41.615Z,30.83
2023-01-01T18:01:11.168Z,16.80
2023-01-01T18:03:39.945Z,16.55
2023-01-01T18:06:07.921Z,19.15
2023-01-01T18:08:34.470Z,21.50
2023-01-01T18:11:06.583Z,22.25
2023-01-01T18:13:33.686Z,17.05
2023-01-01T18:16:01.413Z,19.23
2023-01-01T18:18:28.754Z,27.58
2023-01-01T18:21:02.324Z,22.85
2023-01-01T18:23:33.374Z,19.50
2023-01-01T18:26:01.634Z,28.70
2023-01-01T18:28:28.253Z,23.20
2023-01-01T18:30:54.981Z,26.67
2023-01-01T18:33:21.772Z,21.67
2023-01-01T18:35:48.421Z,27.40
2023-01-01T18:38:16.060Z,23.40
2023-01-01T18:40:52.078Z,21.08
2023-01-01T18:43:23.722Z,22.58
2023-01-01T18:45:50.231Z,23.33
2023-01-01T18:48:21.391Z,24.20
2023-01-01T18:50:48.335Z,19.75
2023-01-01T18:53:23.163Z,30.38
2023-01-01T18:56:01.927Z,22.77
2023-01-01T18:58:30.424Z,19.40
2023-01-01T19:00:59.096Z,20.67
2023-01-01T19:03:29.351Z,20.67
2023-01-01T19:05:57.505Z,22.02
2023-01-01T19:08:28.298Z,15.65
2023-01-01T19:10:58.595Z,24.48
2023-01-01T19:13:41.988Z,27.10
2023-01-01T19:16:29.014Z,17.83
2023-01-01T19:19:01.301Z,20.20
2023-01-01T19:21:27.867Z,29.73
2023-01-01T19:23:54.303Z,19.00
2023-01-01T19:26:35.719Z,25.92
2023-01-01T19:29:05.611Z,19.08
2023-01-01T19:31:32.151Z,26.40
2023-01-01T19:33:58.695Z,24.30
2023-01-01T19:36:25.265Z,17.80
2023-01-01T19:38:51.895Z,21.38
2023-01-01T19:41:18.509Z,25.75
2023-01-01T19:43:45.156Z,29.00
2023-01-01T19:46:13.138Z,22.92
2023-01-01T19:48:39.956Z,26.73
2023-01-01T19:51:06.743Z,23.38
2023-01-01T19:53:33.373Z,22.50
2023-01-01T19:55:59.940Z,23.38
2023-01-01T19:58:26.564Z,21.45
2023-01-01T20:00:53.370Z,22.73
2023-01-01T20:03:52.917Z,20.52
2023-01-01T20:06:08.564Z,18.48
2023-01-01T20:08:38.080Z,16.33
2023-01-01T20:11:05.435Z,20.35
2023-01-01T20:13:31.983Z,20.80
2023-01-01T20:16:03.037Z,20.17
2023-01-01T20:18:30.019Z,19.35
2023-01-01T20:21:18.084Z,24.40
2023-01-01T20:23:48.708Z,29.85
2023-01-01T20:26:16.419Z,17.42
2023-01-01T20:29:01.450Z,27.77
2023-01-01T20:31:27.971Z,21.65
2023-01-01T20:33:54.489Z,17.40
2023-01-01T20:36:39.146Z,17.23
2023-01-01T20:39:05.638Z,22.27
2023-01-01T20:41:32.128Z,19.02
2023-01-01T20:44:01.441Z,19.98
2023-01-01T20:46:30.001Z,16.25
2023-01-01T20:48:57.477Z,17.00
2023-01-01T20:51:24.352Z,22.95
2023-01-01T20:53:50.971Z,21.02
2023-01-01T20:56:17.602Z,18.88
2023-01-01T20:58:49.128Z,21.90
2023-01-01T21:01:18.525Z,22.17
2023-01-01T21:03:45.205Z,19.60
2023-01-01T21:06:11.890Z,20.63
2023-01-01T21:08:38.481Z,25.98
2023-01-01T21:11:05.338Z,20.27
2023-01-01T21:13:31.932Z,22.85
2023-01-01T21:16:12.654Z,30.25
2023-01-01T21:18:40.951Z,13.98
2023-01-01T21:21:26.839Z,22.23
2023-01-01T21:23:57.539Z,18.88
2023-01-01T21:26:29.787Z,24.15
2023-01-01T21:28:59.583Z,16.65
2023-01-01T21:31:29.438Z,21.70
2023-01-01T21:33:55.996Z,27.10
2023-01-01T21:36:23.728Z,21.60
2023-01-01T21:38:51.852Z,19.23
2023-01-01T21:41:25.264Z,19.00
2023-01-01T21:43:56.783Z,20.35
2023-01-01T21:46:34.959Z,16.08
2023-01-01T21:49:17.507Z,20.67
2023-01-01T21:51:51.965Z,18.63
2023-01-01T21:56:59.083Z,31.02
2023-01-01T21:59:41.848Z,31.08
2023-01-01T22:02:28.922Z,17.30
2023-01-01T22:04:56.153Z,13.88
2023-01-01T22:10:28.586Z,15.10
2023-01-01T22:13:00.349Z,24.15
2023-01-01T22:15:40.492Z,25.00
2023-01-01T22:18:09.778Z,27.15
2023-01-01T22:20:38.619Z,18.25
2023-01-01T22:23:34.856Z,28.90
2023-01-01T22:26:04.666Z,24.08
2023-01-01T22:28:41.017Z,17.30
2023-01-01T22:31:12.509Z,18.85
2023-01-01T22:33:44.050Z,17.70
2023-01-01T22:36:16.947Z,17.73
2023-01-01T22:38:43.994Z,18.55
2023-01-01T22:41:12.619Z,15.38
2023-01-01T22:43:42.330Z,13.32
2023-01-01T22:46:17.731Z,19.17
2023-01-01T22:48:44.324Z,26.83
2023-01-01T22:51:27.355Z,17.23
2023-01-01T22:53:54.293Z,19.40
2023-01-01T22:56:21.485Z,24.67
2023-01-01T22:58:53.113Z,25.08
2023-01-01T23:01:23.296Z,23.80
2023-01-01T23:03:49.948Z,21.08
2023-01-01T23:06:17.259Z,20.58
2023-01-01T23:08:43.893Z,24.90
2023-01-01T23:11:10.633Z,20.77
2023-01-01T23:13:55.542Z,17.90
2023-01-01T23:16:22.807Z,25.65
2023-01-01T23:18:49.399Z,15.80
2023-01-01T23:21:26.439Z,22.80
2023-01-01T23:23:57.033Z,17.20
2023-01-01T23:26:25.110Z,25.23
2023-01-01T23:28:53.447Z,18.67
2023-01-01T23:31:25.321Z,16.15
2023-01-01T23:33:53.158Z,22.95
2023-01-01T23:36:19.832Z,23.23
2023-01-01T23:38:46.672Z,18.20
2023-01-01T23:41:13.259Z,22.92
2023-01-01T23:43:43.667Z,24.17
2023-01-01T23:46:12.844Z,20.75
2023-01-01T23:48:40.866Z,35.67
2023-01-01T23:51:07.620Z,18.85
2023-01-01T23:53:34.229Z,20.17
2023-01-01T23:56:00.924Z,17.70
2023-01-01T23:58:27.969Z,25.52
